Time;durP1;ratioP1;P1;durP2;ratioP2;P2;SDS_P1;SDS_P2;PMS_P1;PMS_P2;Temp;Humidity;BMP_temperature;BMP_pressure;BME280_temperature;BME280_humidity;BME280_pressure;Samples;Min_cycle;Max_cycle;Signal;HPM_P1;HPM_P2
2021/10/06 00:02:17;;;;;;;5.90;3.83;;;11.00;99.90;;;;;;5140524;27;20794;-65
2021/10/06 00:04:44;;;;;;;10.33;4.73;;;11.00;99.90;;;;;;5138457;27;20563;-67
2021/10/06 00:07:11;;;;;;;9.00;4.07;;;11.00;99.90;;;;;;5140787;27;20515;-65
2021/10/06 00:09:39;;;;;;;8.00;4.17;;;11.00;1.00;;;;;;5140285;27;20530;-66
2021/10/06 00:12:07;;;;;;;8.60;3.80;;;11.10;99.90;;;;;;5140406;27;20458;-66
2021/10/06 00:14:34;;;;;;;6.80;3.90;;;11.00;1.00;;;;;;5140547;27;20780;-66
2021/10/06 00:17:01;;;;;;;5.60;4.40;;;11.00;1.00;;;;;;5140319;27;20962;-66
2021/10/06 00:19:28;;;;;;;5.87;3.50;;;11.00;99.90;;;;;;5140406;27;20870;-65
2021/10/06 00:21:57;;;;;;;6.60;3.90;;;11.00;99.90;;;;;;5140337;27;20462;-65
2021/10/06 00:24:24;;;;;;;5.27;3.70;;;11.00;99.90;;;;;;5140112;27;20513;-66
2021/10/06 00:26:55;;;;;;;5.50;3.00;;;11.00;99.90;;;;;;5140210;27;20462;-66
2021/10/06 00:29:22;;;;;;;4.83;3.63;;;11.00;27.80;;;;;;5140393;27;20799;-65
2021/10/06 00:31:49;;;;;;;4.57;3.23;;;10.90;1.00;;;;;;5139828;27;20765;-65
2021/10/06 00:34:23;;;;;;;7.07;3.60;;;10.90;1.00;;;;;;5139832;27;20462;-65
2021/10/06 00:36:53;;;;;;;7.10;3.30;;;10.90;1.00;;;;;;5139897;27;20437;-65
2021/10/06 00:39:20;;;;;;;5.50;3.43;;;10.90;99.90;;;;;;5139800;27;20530;-65
2021/10/06 00:41:47;;;;;;;5.07;3.70;;;10.90;9.10;;;;;;5139529;27;20459;-65
2021/10/06 00:44:19;;;;;;;9.80;4.70;;;10.80;99.90;;;;;;5139677;27;20486;-66
2021/10/06 00:46:47;;;;;;;6.63;3.20;;;10.80;99.90;;;;;;5139886;27;20869;-65
2021/10/06 00:49:14;;;;;;;5.83;2.87;;;10.80;99.90;;;;;;5139782;27;20454;-65
2021/10/06 00:51:44;;;;;;;5.83;3.40;;;10.80;99.90;;;;;;5139407;27;20523;-65
2021/10/06 00:54:12;;;;;;;10.43;3.30;;;10.70;99.90;;;;;;5139255;27;20504;-65
2021/10/06 00:56:39;;;;;;;3.03;2.37;;;10.70;1.00;;;;;;5139621;27;20438;-65
2021/10/06 00:59:06;;;;;;;5.43;2.60;;;10.70;1.00;;;;;;5139729;27;20459;-65
2021/10/06 01:01:37;;;;;;;4.87;2.80;;;10.70;99.90;;;;;;5139496;27;20461;-65
2021/10/06 01:04:08;;;;;;;4.53;3.20;;;10.70;1.00;;;;;;5138958;27;20936;-64
2021/10/06 01:06:35;;;;;;;5.50;2.70;;;10.70;99.90;;;;;;5139329;27;20467;-66
2021/10/06 01:09:03;;;;;;;6.47;3.27;;;10.70;1.00;;;;;;5139475;27;20433;-64
2021/10/06 01:11:30;;;;;;;7.23;2.60;;;10.70;1.00;;;;;;5139295;27;20842;-65
2021/10/06 01:13:57;;;;;;;5.77;3.00;;;10.70;1.00;;;;;;5139483;27;20519;-64
2021/10/06 01:16:25;;;;;;;3.47;2.40;;;10.70;1.00;;;;;;5139122;27;20458;-64
2021/10/06 01:18:53;;;;;;;5.23;3.10;;;10.70;99.90;;;;;;5139321;27;20526;-65
2021/10/06 01:21:25;;;;;;;5.70;3.37;;;10.70;99.90;;;;;;5139377;27;20484;-64
2021/10/06 01:23:54;;;;;;;3.60;2.70;;;10.70;1.00;;;;;;5138963;27;20494;-64
2021/10/06 01:26:21;;;;;;;4.13;2.53;;;10.70;99.90;;;;;;5139209;27;20549;-65
2021/10/06 01:28:48;;;;;;;4.33;2.67;;;10.70;1.00;;;;;;5139158;27;20463;-65
2021/10/06 01:31:15;;;;;;;10.43;3.37;;;10.70;1.00;;;;;;5139181;27;20463;-65
2021/10/06 01:33:42;;;;;;;4.57;2.80;;;10.70;29.40;;;;;;5139083;27;20801;-64
2021/10/06 01:36:09;;;;;;;6.90;3.07;;;10.70;41.00;;;;;;5138697;27;20458;-65
2021/10/06 01:38:38;;;;;;;4.50;2.50;;;10.60;1.00;;;;;;5138625;27;20458;-65
2021/10/06 01:41:05;;;;;;;11.60;3.20;;;10.60;8.00;;;;;;5138696;27;20463;-65
2021/10/06 01:43:32;;;;;;;5.53;2.43;;;10.70;99.90;;;;;;5138810;27;20459;-64
2021/10/06 01:46:02;;;;;;;3.67;3.00;;;10.60;1.00;;;;;;5138564;27;20890;-64
2021/10/06 01:48:32;;;;;;;3.67;2.60;;;10.60;1.00;;;;;;5138412;27;20742;-64
2021/10/06 01:50:59;;;;;;;5.33;2.87;;;10.60;1.00;;;;;;5138299;27;20466;-64
2021/10/06 01:53:36;;;;;;;4.00;2.73;;;10.60;1.00;;;;;;5138719;27;20515;-64
2021/10/06 01:56:08;;;;;;;6.87;2.90;;;10.60;99.90;;;;;;5138805;27;20454;-64
2021/10/06 01:58:35;;;;;;;5.10;2.80;;;10.50;99.90;;;;;;5138336;27;20462;-64
2021/10/06 02:01:03;;;;;;;4.33;3.10;;;10.60;1.00;;;;;;5138137;27;20459;-64
2021/10/06 02:03:30;;;;;;;5.70;3.97;;;10.60;99.90;;;;;;5138080;27;20459;-64
2021/10/06 02:05:58;;;;;;;5.73;3.50;;;10.60;43.80;;;;;;5138741;27;20451;-64
2021/10/06 02:08:25;;;;;;;7.17;3.80;;;10.60;1.00;;;;;;5138516;27;20472;-64
2021/10/06 02:10:52;;;;;;;6.07;3.60;;;10.60;1.00;;;;;;5137569;27;20455;-64
2021/10/06 02:13:20;;;;;;;7.40;2.90;;;10.60;1.00;;;;;;5138111;27;20512;-64
2021/10/06 02:15:47;;;;;;;8.17;3.50;;;10.60;99.90;;;;;;5138130;27;20926;-63
2021/10/06 02:18:15;;;;;;;5.60;2.90;;;10.60;99.90;;;;;;5138078;27;20459;-64
2021/10/06 02:20:42;;;;;;;4.40;3.03;;;10.60;99.90;;;;;;5137756;27;20513;-63
2021/10/06 02:23:10;;;;;;;5.77;3.70;;;10.60;99.90;;;;;;5137359;27;20459;-64
2021/10/06 02:25:37;;;;;;;5.73;3.60;;;10.60;99.90;;;;;;5138056;27;20490;-63
2021/10/06 02:28:06;;;;;;;9.60;3.60;;;10.60;99.90;;;;;;5137857;27;20481;-64
2021/10/06 02:30:35;;;;;;;7.97;2.70;;;10.60;99.90;;;;;;5138286;27;20433;-63
2021/10/06 02:33:02;;;;;;;5.23;3.13;;;10.60;99.90;;;;;;5137341;27;20458;-63
2021/10/06 02:35:29;;;;;;;5.83;2.90;;;10.60;99.90;;;;;;5137733;27;20861;-64
2021/10/06 02:37:59;;;;;;;4.53;3.07;;;10.60;41.90;;;;;;5137851;27;20904;-63
2021/10/06 02:40:26;;;;;;;6.07;3.10;;;10.60;75.20;;;;;;5137554;27;20511;-63
2021/10/06 02:42:54;;;;;;;3.80;2.63;;;10.60;73.10;;;;;;5137253;27;20458;-63
2021/10/06 02:45:22;;;;;;;6.33;3.73;;;10.60;99.90;;;;;;5137661;27;20944;-63
2021/10/06 02:47:51;;;;;;;6.30;3.23;;;10.50;78.50;;;;;;5137833;27;20527;-63
2021/10/06 02:50:22;;;;;;;6.67;3.13;;;10.50;99.90;;;;;;5137247;27;20462;-65
2021/10/06 02:52:49;;;;;;;5.20;3.20;;;10.40;99.90;;;;;;5137584;27;20838;-63
2021/10/06 02:55:18;;;;;;;9.50;5.37;;;10.40;99.90;;;;;;5138093;27;20461;-62
2021/10/06 02:57:45;;;;;;;7.33;2.93;;;10.40;1.00;;;;;;5137470;27;20463;-63
2021/10/06 03:00:13;;;;;;;6.33;3.13;;;10.30;1.00;;;;;;5137718;27;20459;-64
2021/10/06 03:02:40;;;;;;;9.13;3.17;;;10.30;1.00;;;;;;5136881;28;20459;-64
2021/10/06 03:05:10;;;;;;;10.20;3.40;;;10.30;99.90;;;;;;5137120;28;20498;-64
2021/10/06 03:07:38;;;;;;;6.50;3.00;;;10.30;1.00;;;;;;5137520;28;20494;-63
2021/10/06 03:10:11;;;;;;;11.10;3.40;;;10.30;99.90;;;;;;5137581;28;20519;-65
2021/10/06 03:12:39;;;;;;;3.83;3.10;;;10.40;91.90;;;;;;5117366;28;20456;-64
2021/10/06 03:15:08;;;;;;;9.47;3.60;;;10.40;1.00;;;;;;5137091;28;20454;-63
2021/10/06 03:17:36;;;;;;;6.77;3.27;;;10.40;99.90;;;;;;5137131;28;20458;-63
2021/10/06 03:20:03;;;;;;;6.70;3.20;;;10.40;27.00;;;;;;5137298;28;20724;-63
2021/10/06 03:22:32;;;;;;;10.00;2.83;;;10.40;1.00;;;;;;5137371;28;20534;-63
2021/10/06 03:24:59;;;;;;;5.90;3.10;;;10.40;1.00;;;;;;5137089;28;20486;-64
2021/10/06 03:27:26;;;;;;;6.63;2.60;;;10.40;1.00;;;;;;5137161;28;20459;-63
2021/10/06 03:29:53;;;;;;;6.83;2.90;;;10.40;1.00;;;;;;5137149;28;20459;-64
2021/10/06 03:32:20;;;;;;;5.57;3.20;;;10.50;1.00;;;;;;5137084;28;20949;-62
2021/10/06 03:34:47;;;;;;;4.93;2.83;;;10.40;1.00;;;;;;5139370;27;20454;-62
2021/10/06 03:37:14;;;;;;;7.23;2.87;;;10.40;1.00;;;;;;5141314;27;20518;-63
2021/10/06 03:39:43;;;;;;;6.53;2.90;;;10.40;1.00;;;;;;5141474;27;20537;-62
2021/10/06 03:42:10;;;;;;;8.93;3.70;;;10.30;1.00;;;;;;5141275;27;20738;-62
2021/10/06 03:44:37;;;;;;;7.60;3.50;;;10.30;1.00;;;;;;5141213;27;20490;-62
2021/10/06 03:47:04;;;;;;;11.90;3.33;;;10.30;1.00;;;;;;5141097;27;20466;-62
2021/10/06 03:49:31;;;;;;;7.97;3.53;;;10.30;1.00;;;;;;5140302;27;20458;-64
2021/10/06 03:51:58;;;;;;;7.53;3.10;;;10.20;1.00;;;;;;5140744;27;20779;-63
2021/10/06 03:54:27;;;;;;;7.77;4.17;;;10.30;1.00;;;;;;5141106;27;20813;-63
2021/10/06 03:56:58;;;;;;;10.30;3.80;;;10.30;1.00;;;;;;5140631;27;20469;-63
2021/10/06 03:59:27;;;;;;;5.07;3.30;;;10.30;1.00;;;;;;5140637;27;20458;-62
2021/10/06 04:01:54;;;;;;;6.13;3.30;;;10.40;1.00;;;;;;5140481;27;20459;-63
2021/10/06 04:04:24;;;;;;;5.43;3.10;;;10.40;99.90;;;;;;5140740;27;20486;-62
2021/10/06 04:06:51;;;;;;;6.13;3.63;;;10.40;99.90;;;;;;5140396;27;20793;-62
2021/10/06 04:09:19;;;;;;;8.60;2.87;;;10.40;99.90;;;;;;5140331;27;20458;-62
2021/10/06 04:11:49;;;;;;;10.93;3.70;;;10.50;99.90;;;;;;5140164;27;20458;-61
2021/10/06 04:14:19;;;;;;;6.37;2.80;;;10.50;99.90;;;;;;5140771;27;20477;-62
2021/10/06 04:16:49;;;;;;;8.40;2.70;;;10.50;99.90;;;;;;5140024;27;20462;-63
2021/10/06 04:19:16;;;;;;;7.37;2.70;;;10.60;94.00;;;;;;5140401;27;20522;-62
2021/10/06 04:21:43;;;;;;;5.77;2.80;;;10.60;45.00;;;;;;5139927;27;20459;-62
2021/10/06 04:24:10;;;;;;;7.40;3.00;;;10.60;18.90;;;;;;5140487;27;20469;-57
2021/10/06 04:26:37;;;;;;;7.90;3.97;;;10.60;15.70;;;;;;5139687;27;20546;-64
2021/10/06 04:29:04;;;;;;;12.17;3.60;;;10.60;4.30;;;;;;5139883;27;20511;-61
2021/10/06 04:31:32;;;;;;;6.10;2.87;;;10.60;4.30;;;;;;5139933;27;20515;-61
2021/10/06 04:33:59;;;;;;;6.20;3.60;;;10.60;1.00;;;;;;5140318;27;20462;-62
2021/10/06 04:36:26;;;;;;;3.93;3.03;;;10.70;1.00;;;;;;5140286;27;20455;-61
2021/10/06 04:38:56;;;;;;;8.57;3.17;;;10.70;1.00;;;;;;5139691;27;20459;-61
2021/10/06 04:41:23;;;;;;;13.23;3.73;;;10.60;1.00;;;;;;5139361;27;20458;-61
2021/10/06 04:43:50;;;;;;;5.47;3.27;;;10.70;1.00;;;;;;5139903;27;20515;-61
2021/10/06 04:46:19;;;;;;;4.37;2.90;;;10.60;1.00;;;;;;5139911;27;20465;-61
2021/10/06 04:48:47;;;;;;;5.67;2.90;;;10.60;1.00;;;;;;5139551;27;20900;-62
2021/10/06 04:51:15;;;;;;;7.00;3.00;;;10.60;1.00;;;;;;5139410;27;20934;-62
2021/10/06 04:53:42;;;;;;;6.10;3.30;;;10.60;1.00;;;;;;5139744;27;20515;-61
2021/10/06 04:56:09;;;;;;;10.50;3.00;;;10.60;1.00;;;;;;5139912;27;20454;-58
2021/10/06 04:58:36;;;;;;;7.83;3.53;;;10.60;1.00;;;;;;5139580;27;20523;-62
2021/10/06 05:01:03;;;;;;;4.53;2.90;;;10.60;1.00;;;;;;5139092;27;20459;-61
2021/10/06 05:03:30;;;;;;;7.70;3.00;;;10.60;1.00;;;;;;5139245;27;20463;-62
2021/10/06 05:06:03;;;;;;;6.20;2.80;;;10.60;1.00;;;;;;5139789;27;20486;-59
2021/10/06 05:08:32;;;;;;;3.70;2.10;;;10.60;1.00;;;;;;5139377;27;20454;-57
2021/10/06 05:10:59;;;;;;;7.13;3.90;;;10.60;1.00;;;;;;5138622;27;20459;-59
2021/10/06 05:13:27;;;;;;;8.70;2.30;;;10.60;1.00;;;;;;5139047;27;20455;-60
2021/10/06 05:15:54;;;;;;;13.43;6.13;;;10.60;1.00;;;;;;5139678;27;20503;-59
2021/10/06 05:18:21;;;;;;;10.93;4.70;;;10.70;1.00;;;;;;5138994;27;20953;-59
2021/10/06 05:20:48;;;;;;;9.03;3.53;;;10.60;1.00;;;;;;5138814;27;20467;-59
2021/10/06 05:23:16;;;;;;;7.87;3.13;;;10.60;1.00;;;;;;5139249;27;20791;-61
2021/10/06 05:25:43;;;;;;;3.70;2.60;;;10.60;1.00;;;;;;5139399;27;20490;-58
2021/10/06 05:28:10;;;;;;;7.70;3.10;;;10.60;1.00;;;;;;5138966;27;20433;-60
2021/10/06 05:30:37;;;;;;;6.63;2.73;;;10.60;1.00;;;;;;5139026;27;20429;-60
2021/10/06 05:33:04;;;;;;;5.23;3.80;;;10.60;1.00;;;;;;5138332;27;20515;-60
2021/10/06 05:35:34;;;;;;;6.53;2.73;;;10.60;1.00;;;;;;5136944;27;20455;-56
2021/10/06 05:38:01;;;;;;;5.87;3.43;;;10.60;1.00;;;;;;5138076;27;20433;-56
2021/10/06 05:40:29;;;;;;;4.70;2.50;;;10.60;1.00;;;;;;5138184;27;20462;-60
2021/10/06 05:42:56;;;;;;;14.00;3.40;;;10.70;1.00;;;;;;5137891;27;20440;-58
2021/10/06 05:45:27;;;;;;;5.27;2.40;;;10.60;1.00;;;;;;5138433;27;20539;-59
2021/10/06 05:47:54;;;;;;;6.33;2.90;;;10.60;1.00;;;;;;5138405;27;20466;-57
2021/10/06 05:50:21;;;;;;;6.33;2.90;;;10.70;1.00;;;;;;5137535;27;20478;-58
2021/10/06 05:52:48;;;;;;;8.40;4.03;;;10.70;1.00;;;;;;5136909;27;20462;-59
2021/10/06 05:55:15;;;;;;;6.87;3.00;;;10.70;1.00;;;;;;5136963;27;20500;-57
2021/10/06 05:57:44;;;;;;;9.60;2.97;;;10.70;1.00;;;;;;5135596;27;20779;-57
2021/10/06 06:00:15;;;;;;;6.50;2.90;;;10.70;1.00;;;;;;5136656;27;20458;-56
2021/10/06 06:02:46;;;;;;;6.07;2.90;;;10.70;1.00;;;;;;5135889;27;20511;-56
2021/10/06 06:05:16;;;;;;;9.00;2.97;;;10.70;1.00;;;;;;5137126;27;20562;-60
2021/10/06 06:07:43;;;;;;;7.40;3.00;;;10.70;1.00;;;;;;5137912;27;20465;-58
2021/10/06 06:10:11;;;;;;;5.27;3.27;;;10.70;1.00;;;;;;5138404;27;20458;-55
2021/10/06 06:12:38;;;;;;;10.00;3.30;;;10.70;1.00;;;;;;5137784;27;20462;-59
2021/10/06 06:15:07;;;;;;;6.43;2.80;;;10.60;1.00;;;;;;5137860;27;20459;-58
2021/10/06 06:17:37;;;;;;;7.77;2.60;;;10.60;1.00;;;;;;5137564;27;20461;-55
2021/10/06 06:20:06;;;;;;;5.90;2.83;;;10.70;1.00;;;;;;5138177;27;20469;-59
2021/10/06 06:22:33;;;;;;;8.30;2.60;;;10.70;1.00;;;;;;5126629;27;20433;-56
2021/10/06 06:25:02;;;;;;;6.50;2.90;;;10.70;1.00;;;;;;5137737;27;20522;-59
2021/10/06 06:27:29;;;;;;;5.83;2.10;;;10.70;1.00;;;;;;5137832;27;20458;-57
2021/10/06 06:29:59;;;;;;;7.40;3.07;;;10.70;1.00;;;;;;5138094;27;20495;-56
2021/10/06 06:32:27;;;;;;;7.00;3.23;;;10.80;1.00;;;;;;5137668;27;20508;-58
2021/10/06 06:34:59;;;;;;;7.97;2.90;;;10.80;1.00;;;;;;5137552;27;21015;-57
2021/10/06 06:37:26;;;;;;;6.60;2.67;;;10.80;1.00;;;;;;5137866;27;20433;-55
2021/10/06 06:39:53;;;;;;;6.50;2.23;;;10.70;1.00;;;;;;5137823;27;20844;-59
2021/10/06 06:42:20;;;;;;;6.90;2.80;;;10.70;1.00;;;;;;5128240;27;20756;-60
2021/10/06 06:44:47;;;;;;;7.33;2.80;;;10.70;1.00;;;;;;5137282;27;20511;-62
2021/10/06 06:47:14;;;;;;;17.00;9.50;;;10.60;1.00;;;;;;5137400;27;20830;-62
2021/10/06 06:49:45;;;;;;;9.30;3.20;;;10.60;1.00;;;;;;5137484;27;20433;-60
2021/10/06 06:52:14;;;;;;;9.27;3.30;;;10.60;1.00;;;;;;5137488;27;20459;-61
2021/10/06 06:54:41;;;;;;;10.63;4.07;;;10.70;1.00;;;;;;5137197;27;20464;-60
2021/10/06 06:57:09;;;;;;;6.23;3.10;;;10.90;1.00;;;;;;5136739;27;20518;-61
2021/10/06 06:59:36;;;;;;;4.77;2.77;;;11.10;1.00;;;;;;5137074;27;20513;-61
2021/10/06 07:02:03;;;;;;;5.80;2.83;;;11.00;1.00;;;;;;5137418;27;20462;-61
2021/10/06 07:04:30;;;;;;;11.90;3.20;;;11.00;1.00;;;;;;5136724;27;20482;-63
2021/10/06 07:06:59;;;;;;;10.63;2.67;;;11.00;1.00;;;;;;5137440;28;20924;-65
2021/10/06 07:09:29;;;;;;;8.73;3.00;;;10.90;1.00;;;;;;5143704;27;20466;-64
2021/10/06 07:11:56;;;;;;;6.17;3.20;;;10.90;1.00;;;;;;5144164;27;20877;-64
2021/10/06 07:14:23;;;;;;;7.30;3.20;;;10.80;1.00;;;;;;5144086;27;20934;-63
2021/10/06 07:16:51;;;;;;;7.63;3.43;;;10.70;1.00;;;;;;5144077;27;20454;-65
2021/10/06 07:19:18;;;;;;;9.60;3.47;;;10.70;1.00;;;;;;5144098;27;20859;-63
2021/10/06 07:21:45;;;;;;;5.63;3.67;;;10.70;21.90;;;;;;5144527;27;20470;-64
2021/10/06 07:24:16;;;;;;;6.40;3.67;;;10.60;51.90;;;;;;5144317;27;20507;-64
2021/10/06 07:26:46;;;;;;;7.50;3.60;;;10.50;99.90;;;;;;5143508;27;20543;-63
2021/10/06 07:29:13;;;;;;;9.90;4.10;;;10.50;99.90;;;;;;5143769;27;20539;-65
2021/10/06 07:31:40;;;;;;;6.90;3.30;;;10.40;1.00;;;;;;5143999;27;20459;-64
2021/10/06 07:34:07;;;;;;;5.70;4.53;;;10.40;98.20;;;;;;5143894;27;20459;-63
2021/10/06 07:36:35;;;;;;;8.43;3.87;;;10.30;99.90;;;;;;5144239;27;21583;-63
2021/10/06 07:39:04;;;;;;;8.90;3.80;;;10.30;99.90;;;;;;5143729;27;20628;-64
2021/10/06 07:41:32;;;;;;;8.23;3.93;;;10.30;99.90;;;;;;5143964;27;20590;-64
2021/10/06 07:44:00;;;;;;;6.50;4.00;;;10.40;99.90;;;;;;5143895;27;20523;-64
2021/10/06 07:46:30;;;;;;;5.83;3.87;;;10.40;1.00;;;;;;5144072;27;20460;-64
2021/10/06 07:48:57;;;;;;;6.33;4.00;;;10.40;1.00;;;;;;5143411;27;20433;-64
2021/10/06 07:51:27;;;;;;;5.73;3.60;;;10.40;13.10;;;;;;5143755;27;20511;-64
2021/10/06 07:53:54;;;;;;;8.00;4.50;;;10.40;1.00;;;;;;5143964;27;20519;-63
2021/10/06 07:56:24;;;;;;;7.77;3.23;;;10.30;21.50;;;;;;5143968;27;20454;-64
2021/10/06 07:58:54;;;;;;;5.80;3.90;;;10.30;1.00;;;;;;5143668;27;20520;-64
2021/10/06 08:01:21;;;;;;;6.83;3.80;;;10.30;99.90;;;;;;5143588;27;20433;-64
2021/10/06 08:03:51;;;;;;;7.73;4.60;;;10.30;99.90;;;;;;5143096;27;20506;-64
2021/10/06 08:06:18;;;;;;;5.57;4.37;;;10.30;1.00;;;;;;5143750;27;20490;-64
2021/10/06 08:08:47;;;;;;;8.97;4.47;;;10.30;99.90;;;;;;5143234;27;20836;-64
2021/10/06 08:11:15;;;;;;;10.67;4.47;;;10.30;1.00;;;;;;5143055;27;20439;-63
2021/10/06 08:13:44;;;;;;;4.73;4.03;;;10.30;99.90;;;;;;5142849;27;20437;-63
2021/10/06 08:16:20;;;;;;;5.90;3.60;;;10.40;39.00;;;;;;5143641;27;20459;-63
2021/10/06 08:18:47;;;;;;;6.70;3.87;;;10.60;99.90;;;;;;5142089;27;20861;-63
2021/10/06 08:21:14;;;;;;;8.33;3.40;;;10.80;1.00;;;;;;5139332;27;20458;-63
2021/10/06 08:23:45;;;;;;;7.47;3.33;;;10.90;99.90;;;;;;5139081;27;20462;-62
2021/10/06 08:26:12;;;;;;;5.27;3.27;;;10.80;1.00;;;;;;5138976;27;20490;-63
2021/10/06 08:28:39;;;;;;;6.50;3.43;;;10.70;1.00;;;;;;5139758;27;20511;-63
2021/10/06 08:31:06;;;;;;;5.73;3.30;;;10.60;99.90;;;;;;5139199;27;20903;-65
2021/10/06 08:33:34;;;;;;;12.00;3.90;;;10.60;99.90;;;;;;5139807;27;20508;-64
2021/10/06 08:36:02;;;;;;;6.60;3.70;;;10.60;1.00;;;;;;5139869;27;20459;-64
2021/10/06 08:38:30;;;;;;;6.00;3.30;;;10.60;99.90;;;;;;5139709;27;20462;-63
2021/10/06 08:41:01;;;;;;;4.97;3.13;;;10.50;92.90;;;;;;5139791;27;20467;-63
2021/10/06 08:43:28;;;;;;;7.00;3.70;;;10.50;21.50;;;;;;5140300;27;20467;-63
2021/10/06 08:45:55;;;;;;;8.70;3.93;;;10.50;1.00;;;;;;5139739;27;20462;-62
2021/10/06 08:48:22;;;;;;;5.57;4.20;;;10.50;1.00;;;;;;5129972;27;20459;-62
2021/10/06 08:50:51;;;;;;;9.77;3.97;;;10.50;1.00;;;;;;5137971;27;20466;-64
2021/10/06 08:53:18;;;;;;;8.23;3.43;;;10.40;99.90;;;;;;5139860;27;20539;-63
2021/10/06 08:55:47;;;;;;;5.90;2.97;;;10.40;99.90;;;;;;5139515;27;20949;-63
2021/10/06 08:58:17;;;;;;;6.23;3.80;;;10.40;99.90;;;;;;5139493;27;20910;-63
2021/10/06 09:00:55;;;;;;;12.13;3.40;;;10.50;1.00;;;;;;5139677;27;20455;-63
2021/10/06 09:03:26;;;;;;;5.00;3.13;;;10.50;99.90;;;;;;5139348;27;20757;-63
2021/10/06 09:06:06;;;;;;;4.57;2.93;;;10.50;1.00;;;;;;5139700;27;20433;-62
2021/10/06 09:08:33;;;;;;;9.70;3.20;;;10.50;99.90;;;;;;5139655;27;20455;-62
2021/10/06 09:11:01;;;;;;;7.13;2.90;;;10.40;99.90;;;;;;5139110;27;20509;-62
2021/10/06 09:13:30;;;;;;;4.90;3.27;;;10.40;1.00;;;;;;5139103;27;20483;-62
2021/10/06 09:16:00;;;;;;;8.27;3.07;;;10.30;99.90;;;;;;5139065;27;20788;-62
2021/10/06 09:18:29;;;;;;;5.80;2.80;;;10.30;1.00;;;;;;5139457;27;20430;-62
2021/10/06 09:21:00;;;;;;;4.03;3.00;;;10.40;95.30;;;;;;5138913;27;20430;-61
2021/10/06 09:23:29;;;;;;;6.03;4.13;;;10.40;1.00;;;;;;5139188;27;20840;-62
2021/10/06 09:25:58;;;;;;;6.63;3.23;;;10.40;99.90;;;;;;5138967;27;20469;-62
2021/10/06 09:28:30;;;;;;;5.87;4.10;;;10.40;1.00;;;;;;5139589;27;20455;-62
2021/10/06 09:31:03;;;;;;;10.83;3.50;;;10.40;1.00;;;;;;5137821;27;20478;-61
2021/10/06 09:33:46;;;;;;;6.10;2.73;;;10.40;99.90;;;;;;5138915;27;20440;-61
2021/10/06 09:36:15;;;;;;;5.27;3.07;;;10.40;99.90;;;;;;5137381;27;20527;-61
2021/10/06 09:38:47;;;;;;;5.00;3.77;;;10.40;1.00;;;;;;5138961;27;20515;-62
2021/10/06 09:41:35;;;;;;;11.13;3.60;;;10.50;1.00;;;;;;5139215;27;20461;-61
2021/10/06 09:44:06;;;;;;;9.07;3.97;;;10.50;99.90;;;;;;5139391;27;20485;-61
2021/10/06 09:46:58;;;;;;;4.67;2.80;;;10.50;1.00;;;;;;5139464;27;20490;-62
2021/10/06 09:49:27;;;;;;;7.10;3.80;;;10.70;1.00;;;;;;5139314;27;20459;-63
2021/10/06 09:52:15;;;;;;;5.57;3.10;;;10.80;1.00;;;;;;5139614;27;20919;-63
2021/10/06 09:54:48;;;;;;;3.93;3.17;;;10.80;99.90;;;;;;5138790;27;20511;-64
2021/10/06 09:57:26;;;;;;;8.20;3.17;;;10.80;1.00;;;;;;5139168;27;20461;-63
2021/10/06 09:59:56;;;;;;;5.30;3.60;;;10.70;97.40;;;;;;5139480;27;20856;-62
2021/10/06 10:02:25;;;;;;;4.47;3.03;;;10.70;99.90;;;;;;5139168;27;20496;-62
2021/10/06 10:04:54;;;;;;;7.30;3.70;;;10.70;99.90;;;;;;5138733;27;20488;-62
2021/10/06 10:07:23;;;;;;;4.40;3.20;;;10.60;99.90;;;;;;5139023;27;20533;-63
2021/10/06 10:09:54;;;;;;;6.83;3.20;;;10.50;99.90;;;;;;5138894;27;20775;-62
2021/10/06 10:12:26;;;;;;;6.47;3.37;;;10.50;1.00;;;;;;5137038;27;20434;-63
2021/10/06 10:14:54;;;;;;;5.13;3.10;;;10.50;1.00;;;;;;5136904;27;20539;-63
2021/10/06 10:17:24;;;;;;;6.87;3.20;;;10.40;1.00;;;;;;5137282;27;20426;-63
2021/10/06 10:19:57;;;;;;;5.00;3.97;;;10.40;1.00;;;;;;5137291;27;20469;-63
2021/10/06 10:22:26;;;;;;;9.93;3.73;;;10.40;1.00;;;;;;5129241;27;20515;-64
2021/10/06 10:24:57;;;;;;;7.30;3.60;;;10.40;99.90;;;;;;5136238;27;20903;-64
2021/10/06 10:27:29;;;;;;;5.80;3.80;;;10.50;99.90;;;;;;5137081;27;20518;-64
2021/10/06 10:30:03;;;;;;;5.20;3.13;;;10.50;99.90;;;;;;5135592;27;20554;-65
2021/10/06 10:32:43;;;;;;;5.57;3.27;;;10.60;99.90;;;;;;5136895;27;20446;-65
2021/10/06 10:35:11;;;;;;;4.20;3.27;;;10.50;99.90;;;;;;5136525;27;20440;-65
2021/10/06 10:38:15;;;;;;;4.17;3.00;;;10.50;99.90;;;;;;5136458;27;20455;-65
2021/10/06 10:41:02;;;;;;;4.37;3.30;;;10.50;99.90;;;;;;5137223;27;20462;-63
2021/10/06 10:43:31;;;;;;;4.80;3.10;;;10.50;99.90;;;;;;5137637;27;20441;-62
2021/10/06 10:46:11;;;;;;;5.03;4.30;;;10.50;99.90;;;;;;5137772;27;20459;-62
2021/10/06 10:49:01;;;;;;;4.80;4.03;;;10.60;99.90;;;;;;5129386;27;20517;-61
2021/10/06 10:51:49;;;;;;;5.30;4.90;;;10.60;99.90;;;;;;5135875;27;20919;-61
2021/10/06 10:54:39;;;;;;;5.53;4.33;;;10.70;99.90;;;;;;5136481;27;20869;-61
2021/10/06 10:57:18;;;;;;;4.47;4.03;;;10.70;99.90;;;;;;5131189;27;20466;-61
2021/10/06 10:59:46;;;;;;;7.33;4.90;;;10.60;99.90;;;;;;5139009;27;20519;-62
2021/10/06 11:02:23;;;;;;;5.93;4.50;;;10.50;99.90;;;;;;5140904;27;20458;-61
2021/10/06 11:04:57;;;;;;;5.73;5.23;;;10.50;99.90;;;;;;5138735;27;20853;-62
2021/10/06 11:07:24;;;;;;;5.90;4.47;;;10.50;99.90;;;;;;5143458;27;20466;-61
2021/10/06 11:09:53;;;;;;;4.63;4.23;;;10.50;99.90;;;;;;5138048;27;20433;-61
2021/10/06 11:12:42;;;;;;;7.03;4.53;;;10.60;99.90;;;;;;5136326;28;20783;-61
2021/10/06 11:15:25;;;;;;;4.97;4.50;;;10.60;99.90;;;;;;5132426;28;20429;-61
2021/10/06 11:18:23;;;;;;;5.47;4.97;;;10.50;99.90;;;;;;5126804;28;20454;-62
2021/10/06 11:21:04;;;;;;;6.87;4.63;;;10.60;99.90;;;;;;5134467;28;20466;-62
2021/10/06 11:23:57;;;;;;;6.20;5.20;;;10.70;99.90;;;;;;5134853;28;20450;-62
2021/10/06 11:26:35;;;;;;;5.30;4.80;;;10.80;99.90;;;;;;5136080;27;20425;-63
2021/10/06 11:29:13;;;;;;;7.00;4.73;;;10.80;99.90;;;;;;5139101;27;20458;-63
2021/10/06 11:31:43;;;;;;;6.47;4.97;;;10.80;99.90;;;;;;5136670;28;20444;-62
2021/10/06 11:34:19;;;;;;;5.70;5.00;;;10.80;99.90;;;;;;5135637;28;20489;-62
2021/10/06 11:36:51;;;;;;;6.10;5.57;;;10.90;99.90;;;;;;5135242;28;20439;-61
2021/10/06 11:39:22;;;;;;;4.70;4.20;;;11.00;99.90;;;;;;5135325;28;20462;-61
2021/10/06 11:41:53;;;;;;;6.90;5.37;;;11.00;99.90;;;;;;5134782;28;20938;-61
2021/10/06 11:44:34;;;;;;;6.57;5.97;;;11.10;99.90;;;;;;5134482;28;20432;-61
2021/10/06 11:47:11;;;;;;;6.57;5.97;;;11.10;99.90;;;;;;5134179;28;20482;-61
2021/10/06 11:49:41;;;;;;;7.63;7.00;;;11.20;99.90;;;;;;5117781;28;20437;-62
2021/10/06 11:52:15;;;;;;;7.70;6.90;;;11.20;99.90;;;;;;5136210;28;20474;-62
2021/10/06 11:54:45;;;;;;;14.20;4.77;;;11.20;99.90;;;;;;5135344;27;20449;-62
2021/10/06 11:57:17;;;;;;;5.53;4.73;;;11.30;99.90;;;;;;5138560;27;20447;-62
2021/10/06 11:59:49;;;;;;;5.20;4.77;;;11.30;99.90;;;;;;5139796;27;20470;-62
2021/10/06 12:02:17;;;;;;;5.20;4.70;;;11.30;99.90;;;;;;5140275;27;20766;-61
2021/10/06 12:04:46;;;;;;;5.60;4.60;;;11.40;99.90;;;;;;5140160;27;20471;-61
2021/10/06 12:07:15;;;;;;;8.77;8.07;;;11.40;99.90;;;;;;5140058;27;20494;-61
2021/10/06 12:09:45;;;;;;;7.50;6.93;;;11.30;1.00;;;;;;5139720;27;20466;-61
2021/10/06 12:12:17;;;;;;;6.53;4.83;;;11.40;1.00;;;;;;5139975;27;20859;-60
2021/10/06 12:14:47;;;;;;;6.63;6.03;;;11.40;1.00;;;;;;5126137;27;20491;-60
2021/10/06 12:17:18;;;;;;;6.63;5.87;;;11.30;34.70;;;;;;5137066;27;20823;-61
2021/10/06 12:19:59;;;;;;;5.33;4.93;;;11.30;23.90;;;;;;5140073;27;20433;-60
2021/10/06 12:22:32;;;;;;;5.27;4.40;;;11.40;91.00;;;;;;5140013;27;20454;-61
2021/10/06 12:25:05;;;;;;;4.57;4.17;;;11.30;99.90;;;;;;5140233;27;20817;-61
2021/10/06 12:27:34;;;;;;;5.70;5.10;;;11.30;99.90;;;;;;5140242;27;20492;-61
2021/10/06 12:30:13;;;;;;;7.90;5.40;;;11.20;99.90;;;;;;5140417;27;20531;-61
2021/10/06 12:32:47;;;;;;;5.00;4.60;;;11.20;99.90;;;;;;5139832;27;20763;-61
2021/10/06 12:35:16;;;;;;;5.80;5.20;;;11.20;99.90;;;;;;5139966;27;20458;-61
2021/10/06 12:37:58;;;;;;;6.00;4.73;;;11.20;99.90;;;;;;5140071;27;20433;-61
2021/10/06 12:40:39;;;;;;;5.60;5.20;;;11.20;99.90;;;;;;5140263;27;20523;-62
2021/10/06 12:43:10;;;;;;;5.47;4.97;;;11.30;99.90;;;;;;5137657;27;20458;-61
2021/10/06 12:45:59;;;;;;;5.20;4.70;;;11.30;99.90;;;;;;5139942;27;20492;-61
2021/10/06 12:48:37;;;;;;;4.80;4.43;;;11.30;99.90;;;;;;5133611;27;20539;-61
2021/10/06 12:51:05;;;;;;;5.00;4.50;;;11.20;99.90;;;;;;5139876;27;20665;-61
2021/10/06 12:53:32;;;;;;;6.30;5.00;;;11.20;99.90;;;;;;5139624;27;20515;-63
2021/10/06 12:55:59;;;;;;;5.13;4.63;;;11.20;99.90;;;;;;5139899;27;20861;-62
2021/10/06 12:58:26;;;;;;;7.40;6.70;;;11.30;99.90;;;;;;5139924;27;20459;-62
2021/10/06 13:00:56;;;;;;;10.13;8.97;;;11.40;99.90;;;;;;5139406;27;20538;-61
2021/10/06 13:03:23;;;;;;;6.53;5.10;;;11.30;99.90;;;;;;5139252;27;20436;-61
2021/10/06 13:05:54;;;;;;;5.00;4.60;;;11.40;99.90;;;;;;5139412;27;20834;-61